Al, Norway

2:13 PM CEST on September 20, 2014 (GMT +0200)
Aal i Hallingdal | Change Station
CLOSE
Current Station
Personal Weather Station
Location: Aal, BUSKERUD
Elevation: 1475 ft
Nearby Weather Stations

Elev 1475 ft 60.62 °N, 8.52 °E | Updated 13 minutes ago

Overcast
Overcast
56.8 °F
Feels Like 56.8 °F
N
0.0
Wind Variable Wind from North
Gusts 1.0 mph

Today
High -- | Low -- °F
--% Chance of Precip.
Yesterday
High -- | Low -- °F
Precip. -- in
7:04 AM 7:32 PM
Waning Crescent, 12% visible
Pressure 29.92 in
Visibility 6.2 miles
Clouds Few 900 ft
Scattered Clouds 3000 ft
Mostly Cloudy 4000 ft
Dew Point 48 °F
Humidity 71%
Rainfall 0.00 in
Snow Depth Not available.
UV 2 out of 12
Pollen Not available.
Air Quality Not available.
Flu Activity Not available.
METAR ENSG 201050Z VRB02KT 9999 -RA FEW009 SCT030 BKN040 09/08 Q1013 RMK

More Conditions Fewer Conditions

Pressure 29.92 in
Visibility 6.2 miles
Clouds Few 900 ft
Scattered Clouds 3000 ft
Mostly Cloudy 4000 ft
Dew Point 48 °F
Humidity 71%
Rainfall 0.00 in
Snow Depth Not available.
UV 2 out of 12
Pollen Not available.
Air Quality Not available.
Flu Activity Not available.
METAR ENSG 201050Z VRB02KT 9999 -RA FEW009 SCT030 BKN040 09/08 Q1013 RMK

More Conditions Fewer Conditions

10-Day Weather Forecast

Almanac

Astronomy

Sep. 20, 2014 Rise Set
Actual Time 7:04 AM CEST 7:32 PM CEST
Civil Twilight 6:21 AM CEST 8:14 PM CEST
Nautical Twilight 5:29 AM CEST 9:06 PM CEST
Astronomical Twilight 4:32 AM CEST 10:03 PM CEST
Moon 2:42 AM CEST 6:04 PM CEST
Length of Visible Light 13h 53m
Length of Day
12h 27m
Tomorrow will be 5m 32s shorter.
Waning Crescent, 12% of the Moon is Illuminated
Today
Waning Crescent
Sep 24
New
Oct 1
First Quarter
Oct 8
Full
Oct 15
Last Quarter

Yesterday's Extremes

Country Highs Country Lows

Community

WunderPhotos

Upload Photos

1,754,840 photos uploaded!

Nearby

Snow Depth

Not available.

Earthquake Activity

City Distance Mag. Time & Date
No recent earthquake activity has been reported nearby.
Minimum magnitude displayed is 2.5.

Coastal Water Temperatures

Place Temperature
No Stations Reporting

Nearby Weather Stations